Time;durP1;ratioP1;P1;durP2;ratioP2;P2;SDS_P1;SDS_P2;PMS_P1;PMS_P2;Temp;Humidity;BMP_temperature;BMP_pressure;BME280_temperature;BME280_humidity;BME280_pressure;Samples;Min_cycle;Max_cycle;Signal;HPM_P1;HPM_P2
2022/08/02 00:00:55;;;;;;;3.20;2.45;;;;;;;20.57;63.42;94568.50;6302854;22;20168;-84
2022/08/02 00:03:23;;;;;;;4.75;2.97;;;;;;;20.56;63.05;94566.91;6302185;22;20160;-85
2022/08/02 00:05:50;;;;;;;4.55;2.53;;;;;;;20.55;63.31;94569.84;6302880;22;20160;-84
2022/08/02 00:08:18;;;;;;;4.72;3.03;;;;;;;20.53;63.87;94564.03;6301691;22;20196;-85
2022/08/02 00:10:45;;;;;;;3.80;2.80;;;;;;;20.53;63.52;94566.69;6299709;22;20160;-83
2022/08/02 00:13:12;;;;;;;3.03;2.50;;;;;;;20.54;63.60;94568.28;6301239;22;20192;-85
2022/08/02 00:15:39;;;;;;;4.40;2.88;;;;;;;20.53;63.42;94567.47;6301605;22;20161;-84
2022/08/02 00:18:06;;;;;;;3.33;2.58;;;;;;;20.54;65.83;94563.78;6301803;22;20168;-84
2022/08/02 00:20:32;;;;;;;3.30;2.80;;;;;;;20.59;65.75;94558.44;6300313;22;20519;-84
2022/08/02 00:22:59;;;;;;;5.10;2.80;;;;;;;20.62;66.05;94559.72;6302120;22;20549;-85
2022/08/02 00:25:28;;;;;;;7.07;2.70;;;;;;;20.58;65.86;94563.97;6301385;22;20913;-84
2022/08/02 00:27:54;;;;;;;2.83;2.60;;;;;;;20.52;65.69;94563.25;6304593;22;20165;-84
2022/08/02 00:30:22;;;;;;;8.52;2.90;;;;;;;20.41;67.46;94561.81;6302739;22;20187;-84
2022/08/02 00:32:49;;;;;;;3.85;2.83;;;;;;;20.29;67.32;94559.56;6303054;22;20188;-85
2022/08/02 00:35:16;;;;;;;5.03;2.72;;;;;;;20.25;68.15;94555.91;6301785;22;20178;-85
2022/08/02 00:37:42;;;;;;;5.68;2.88;;;;;;;20.26;68.37;94551.41;6302201;22;20172;-85
2022/08/02 00:40:10;;;;;;;7.65;2.92;;;;;;;20.21;69.33;94554.88;6303006;22;20168;-83
2022/08/02 00:42:39;;;;;;;3.28;2.50;;;;;;;20.14;70.05;94549.16;6303420;22;20168;-84
2022/08/02 00:45:07;;;;;;;4.28;2.90;;;;;;;20.10;70.56;94560.53;6300490;22;20171;-83
2022/08/02 00:47:34;;;;;;;6.47;2.95;;;;;;;20.03;70.60;94557.44;6300980;22;20164;-83
2022/08/02 00:50:02;;;;;;;5.03;3.10;;;;;;;19.89;71.14;94549.38;6303130;22;20227;-83
2022/08/02 00:52:28;;;;;;;4.45;3.35;;;;;;;19.94;71.16;94549.31;6302711;22;20670;-83
2022/08/02 00:54:55;;;;;;;6.75;4.50;;;;;;;19.80;71.89;94536.00;6305172;22;20172;-84
2022/08/02 00:57:22;;;;;;;7.75;5.00;;;;;;;19.95;71.22;94542.97;6304349;22;20169;-84
2022/08/02 00:59:50;;;;;;;13.27;4.63;;;;;;;19.86;71.14;94535.94;6304695;22;20666;-85
2022/08/02 01:02:17;;;;;;;6.35;4.38;;;;;;;19.97;70.35;94548.00;6304732;22;20172;-85
2022/08/02 01:04:46;;;;;;;6.25;4.00;;;;;;;19.98;70.54;94544.28;6305032;22;20183;-84
2022/08/02 01:07:13;;;;;;;7.38;4.15;;;;;;;19.99;70.25;94544.00;6304744;22;20237;-84
2022/08/02 01:09:40;;;;;;;8.90;4.15;;;;;;;19.97;70.55;94548.00;6304902;22;20203;-86
2022/08/02 01:12:07;;;;;;;8.88;3.60;;;;;;;19.87;70.48;94548.06;6304513;22;20175;-83
2022/08/02 01:14:34;;;;;;;7.55;4.07;;;;;;;19.80;70.25;94535.19;6304461;22;20160;-82
2022/08/02 01:17:08;;;;;;;7.85;3.30;;;;;;;19.83;69.91;94546.00;6304579;22;20160;-82
2022/08/02 01:19:43;;;;;;;5.25;3.33;;;;;;;19.85;69.85;94553.66;6304368;22;20168;-82
2022/08/02 01:22:42;;;;;;;5.60;3.30;;;;;;;19.78;69.23;94547.88;6304733;22;20239;-83
2022/08/02 01:25:21;;;;;;;6.82;3.00;;;;;;;19.73;69.16;94551.38;6304894;22;20227;-83
2022/08/02 01:28:21;;;;;;;6.28;3.10;;;;;;;19.63;70.13;94543.53;6305153;22;20153;-83
2022/08/02 01:30:56;;;;;;;8.65;3.08;;;;;;;19.63;70.56;94550.66;6249000;22;20168;-83
2022/08/02 01:33:27;;;;;;;4.82;3.38;;;;;;;19.44;72.17;94547.13;6304386;22;20184;-83
2022/08/02 01:35:57;;;;;;;5.20;3.20;;;;;;;19.24;72.51;94548.03;6304276;22;20172;-82
2022/08/02 01:38:33;;;;;;;7.93;3.20;;;;;;;19.15;73.45;94549.66;6304129;22;20503;-81
2022/08/02 01:41:03;;;;;;;5.95;3.13;;;;;;;19.27;73.03;94556.19;6304512;22;20642;-83
2022/08/02 01:43:31;;;;;;;4.03;3.00;;;;;;;19.31;72.94;94553.75;6304774;22;20166;-83
2022/08/02 01:46:01;;;;;;;6.18;3.20;;;;;;;19.32;72.81;94552.72;6304174;22;20646;-83
2022/08/02 01:48:29;;;;;;;6.47;3.70;;;;;;;19.32;72.46;94546.66;6305133;22;20164;-82
2022/08/02 01:50:59;;;;;;;4.78;3.00;;;;;;;19.34;72.37;94550.56;6304426;22;20631;-82
2022/08/02 01:53:27;;;;;;;4.95;3.08;;;;;;;19.30;72.32;94552.19;6303350;22;20199;-81
2022/08/02 01:55:57;;;;;;;3.40;3.10;;;;;;;19.22;72.51;94547.50;6302907;22;20172;-83
2022/08/02 01:58:26;;;;;;;4.22;3.10;;;;;;;19.18;72.90;94551.75;6301720;22;20163;-84
2022/08/02 02:00:56;;;;;;;7.95;3.38;;;;;;;19.08;73.64;94555.22;6300045;22;20179;-84
2022/08/02 02:03:26;;;;;;;4.50;3.42;;;;;;;19.05;73.82;94554.97;6298078;22;20172;-83
2022/08/02 02:05:56;;;;;;;5.28;3.17;;;;;;;18.94;73.86;94553.47;6300376;22;20701;-81
2022/08/02 02:08:29;;;;;;;11.57;3.10;;;;;;;18.89;74.59;94559.56;6301807;22;20196;-81
2022/08/02 02:10:57;;;;;;;8.38;3.42;;;;;;;18.95;74.17;94566.38;6302590;22;20834;-82
2022/08/02 02:13:26;;;;;;;4.55;3.13;;;;;;;18.97;74.35;94560.81;6301648;22;20229;-82
2022/08/02 02:15:54;;;;;;;4.68;3.45;;;;;;;18.88;74.15;94560.59;6301443;22;20178;-83
2022/08/02 02:18:26;;;;;;;6.20;3.22;;;;;;;18.83;74.98;94555.38;6301712;22;20180;-82
2022/08/02 02:20:54;;;;;;;5.47;3.50;;;;;;;18.78;74.74;94562.50;6301825;22;20702;-82
2022/08/02 02:23:21;;;;;;;4.07;3.42;;;;;;;18.67;74.47;94544.13;6301988;22;20172;-82
2022/08/02 02:25:49;;;;;;;3.47;3.10;;;;;;;18.64;74.59;94559.69;6302074;22;20160;-84
2022/08/02 02:28:23;;;;;;;3.97;3.30;;;;;;;18.57;75.40;94553.91;6302037;22;20165;-83
2022/08/02 02:30:53;;;;;;;5.40;3.45;;;;;;;18.55;75.15;94548.13;6303347;22;20156;-84
2022/08/02 02:33:21;;;;;;;10.25;3.90;;;;;;;18.58;75.57;94560.75;6303296;22;20219;-84
2022/08/02 02:35:51;;;;;;;5.60;3.90;;;;;;;18.53;75.83;94571.28;6303331;22;20168;-84
2022/08/02 02:38:20;;;;;;;3.83;3.38;;;;;;;18.50;74.69;94563.94;6303844;22;20646;-85
2022/08/02 02:40:48;;;;;;;3.75;3.40;;;;;;;18.46;75.88;94554.97;6305299;22;20168;-87
2022/08/02 02:43:16;;;;;;;7.65;3.40;;;;;;;18.43;75.80;94555.53;6302273;22;20164;-87
2022/08/02 02:45:44;;;;;;;6.87;3.70;;;;;;;18.40;75.30;94550.78;6302672;22;20160;-87
2022/08/02 02:48:14;;;;;;;4.70;3.50;;;;;;;18.23;76.77;94540.59;6302416;22;20776;-87
2022/08/02 02:50:42;;;;;;;5.20;3.80;;;;;;;18.37;77.13;94553.97;6302578;22;20171;-88
2022/08/02 02:53:12;;;;;;;4.55;3.65;;;;;;;18.42;76.50;94559.19;6302199;22;20188;-85
2022/08/02 02:55:41;;;;;;;8.65;4.07;;;;;;;18.41;76.68;94558.41;6301687;22;20167;-86
2022/08/02 02:58:09;;;;;;;5.88;3.78;;;;;;;18.44;78.16;94562.38;6302061;22;20164;-84
2022/08/02 03:03:21;;;;;;;6.27;4.17;;;;;;;18.38;78.87;94566.88;6301923;22;20159;-85
2022/08/02 03:05:48;;;;;;;8.98;4.20;;;;;;;18.37;78.89;94561.84;6300907;22;20164;-83
2022/08/02 03:08:17;;;;;;;10.10;4.13;;;;;;;18.37;78.09;94551.31;6299472;22;20752;-85
2022/08/02 03:10:45;;;;;;;6.50;3.77;;;;;;;18.40;78.32;94564.75;6298714;22;20905;-84
2022/08/02 03:13:12;;;;;;;6.65;4.40;;;;;;;18.36;78.59;94563.69;6301817;22;20529;-86
2022/08/02 03:15:40;;;;;;;9.88;4.57;;;;;;;18.35;78.73;94558.72;6300535;22;20178;-84
2022/08/02 03:18:07;;;;;;;7.20;5.25;;;;;;;18.26;78.63;94552.41;6298369;22;20171;-86
2022/08/02 03:20:35;;;;;;;14.52;4.68;;;;;;;18.34;78.56;94565.81;6299293;22;20164;-84
2022/08/02 03:23:02;;;;;;;6.97;4.15;;;;;;;18.29;78.55;94552.69;6302155;22;20164;-85
2022/08/02 03:25:30;;;;;;;14.77;4.65;;;;;;;18.27;78.62;94554.00;6301136;22;20646;-84
2022/08/02 03:27:57;;;;;;;10.30;4.57;;;;;;;18.36;79.14;94560.25;6301448;22;20519;-84
2022/08/02 03:30:26;;;;;;;12.10;4.82;;;;;;;18.39;79.05;94557.09;6301309;22;20191;-82
2022/08/02 03:32:53;;;;;;;11.82;5.35;;;;;;;18.34;79.70;94559.75;6301037;22;20635;-85
2022/08/02 03:35:21;;;;;;;13.73;5.90;;;;;;;18.34;78.94;94555.28;6299285;22;20187;-76
2022/08/02 03:37:49;;;;;;;15.20;5.80;;;;;;;18.33;79.31;94561.59;6297358;22;20172;-76
2022/08/02 03:40:16;;;;;;;11.70;5.55;;;;;;;18.40;78.96;94561.31;6296156;22;20621;-75
2022/08/02 03:42:45;;;;;;;14.27;5.47;;;;;;;18.49;78.46;94572.91;6297538;22;20173;-74
2022/08/02 03:45:13;;;;;;;12.60;5.82;;;;;;;18.50;78.23;94566.56;6296306;22;20508;-77
2022/08/02 03:47:41;;;;;;;9.38;4.90;;;;;;;18.44;77.44;94565.75;6296878;22;20165;-76
2022/08/02 03:50:11;;;;;;;7.95;4.43;;;;;;;18.33;76.94;94566.06;6296636;22;20168;-76
2022/08/02 03:52:40;;;;;;;11.05;4.85;;;;;;;18.20;77.27;94574.53;6296537;22;20168;-76
2022/08/02 03:55:08;;;;;;;7.77;4.97;;;;;;;18.26;77.17;94576.09;6296418;22;20195;-76
2022/08/02 03:57:37;;;;;;;6.63;4.47;;;;;;;18.27;76.42;94569.78;6296205;22;20246;-76
2022/08/02 04:00:07;;;;;;;12.47;4.70;;;;;;;18.36;76.04;94587.38;6296320;22;20196;-76
2022/08/02 04:02:35;;;;;;;4.80;4.20;;;;;;;18.35;75.97;94591.09;6296406;22;20210;-76
2022/08/02 04:05:02;;;;;;;8.37;4.70;;;;;;;18.28;76.36;94592.41;6296304;22;20704;-77
2022/08/02 04:07:29;;;;;;;7.80;4.72;;;;;;;18.33;76.13;94592.38;6296623;22;20176;-76
2022/08/02 04:09:56;;;;;;;8.17;4.73;;;;;;;18.30;75.77;94598.16;6297016;22;20199;-76
2022/08/02 04:12:23;;;;;;;7.47;4.37;;;;;;;18.34;75.90;94604.50;6296237;22;20172;-76
2022/08/02 04:14:50;;;;;;;9.88;4.90;;;;;;;18.31;75.52;94605.03;6297424;22;20191;-76
2022/08/02 04:17:21;;;;;;;8.95;4.32;;;;;;;18.36;75.19;94608.44;6296776;22;20198;-76
2022/08/02 04:19:52;;;;;;;13.35;4.90;;;;;;;18.41;74.78;94600.50;6296919;22;20247;-76
2022/08/02 04:22:25;;;;;;;9.18;4.95;;;;;;;18.40;74.71;94612.13;6295344;22;20218;-76
2022/08/02 04:24:57;;;;;;;8.38;4.35;;;;;;;18.36;74.93;94613.69;6296899;22;20217;-76
2022/08/02 04:27:25;;;;;;;7.50;5.18;;;;;;;18.25;75.52;94598.97;6297373;22;20156;-77
2022/08/02 04:29:52;;;;;;;7.60;5.00;;;;;;;18.26;76.15;94602.41;6299263;22;20902;-77
2022/08/02 04:32:22;;;;;;;8.30;5.20;;;;;;;18.22;76.76;94602.16;6296742;22;20556;-76
2022/08/02 04:34:49;;;;;;;8.63;4.90;;;;;;;18.25;76.88;94606.88;6297536;22;20521;-76
2022/08/02 04:37:16;;;;;;;12.48;4.80;;;;;;;18.23;76.84;94611.63;6300415;22;20494;-77
2022/08/02 04:39:43;;;;;;;9.83;5.40;;;;;;;18.43;76.18;94605.53;6300184;22;20175;-77
2022/08/02 04:42:10;;;;;;;9.33;5.37;;;;;;;18.54;74.89;94607.09;6301875;22;20160;-77
2022/08/02 04:44:37;;;;;;;10.40;5.13;;;;;;;18.54;74.34;94604.47;6301172;22;20164;-76
2022/08/02 04:47:05;;;;;;;12.30;5.70;;;;;;;18.51;74.18;94608.44;6301607;22;20169;-75
2022/08/02 04:49:33;;;;;;;14.70;5.70;;;;;;;18.46;73.73;94608.41;6301771;22;20199;-75
2022/08/02 04:52:00;;;;;;;12.32;5.68;;;;;;;18.50;73.83;94614.72;6302271;22;20558;-75
2022/08/02 04:54:27;;;;;;;9.80;5.68;;;;;;;18.50;73.79;94617.38;6300769;22;20191;-76
2022/08/02 04:56:54;;;;;;;12.77;5.88;;;;;;;18.53;74.35;94613.41;6301285;22;20175;-75
2022/08/02 04:59:21;;;;;;;10.23;5.82;;;;;;;18.58;74.49;94608.16;6301630;22;20179;-75
2022/08/02 05:01:48;;;;;;;12.57;5.93;;;;;;;18.56;74.40;94611.03;6301693;22;20191;-75
2022/08/02 05:04:14;;;;;;;8.77;5.80;;;;;;;18.54;75.41;94612.38;6300502;22;20166;-75
2022/08/02 05:06:42;;;;;;;15.70;5.75;;;;;;;18.55;75.84;94611.31;6300837;22;20689;-76
2022/08/02 05:09:09;;;;;;;11.80;5.72;;;;;;;18.74;75.77;94619.41;6301709;22;20207;-76
2022/08/02 05:11:36;;;;;;;19.15;5.82;;;;;;;18.77;74.93;94616.22;6302134;22;20171;-76
2022/08/02 05:14:03;;;;;;;10.27;6.10;;;;;;;18.75;73.82;94605.19;6302699;22;20200;-79
2022/08/02 05:16:30;;;;;;;13.75;6.50;;;;;;;18.87;74.51;94610.94;6301260;22;20520;-77
2022/08/02 05:18:57;;;;;;;16.65;6.78;;;;;;;19.02;74.42;94619.53;6303247;22;20728;-86
2022/08/02 05:21:24;;;;;;;12.38;5.80;;;;;;;19.19;73.61;94617.34;6302303;22;20554;-77
2022/08/02 05:23:52;;;;;;;11.02;5.72;;;;;;;19.31;72.92;94621.53;6301166;22;20164;-77
2022/08/02 05:26:19;;;;;;;10.50;5.82;;;;;;;19.44;73.29;94616.47;6301978;22;20566;-77
2022/08/02 05:28:48;;;;;;;12.55;6.15;;;;;;;19.57;72.75;94620.31;6302082;22;20172;-77
2022/08/02 05:31:15;;;;;;;9.80;5.35;;;;;;;19.66;71.98;94623.94;6301829;22;20168;-77
2022/08/02 05:33:42;;;;;;;8.77;4.80;;;;;;;19.77;71.13;94628.88;6301843;22;20511;-76
2022/08/02 05:36:09;;;;;;;18.25;5.57;;;;;;;19.93;70.24;94628.75;6301343;22;20168;-76
2022/08/02 05:38:36;;;;;;;7.00;4.80;;;;;;;20.00;68.42;94621.31;6300353;22;20180;-77
2022/08/02 05:41:04;;;;;;;9.98;3.90;;;;;;;20.03;67.35;94628.69;6302627;22;20168;-76
2022/08/02 05:43:31;;;;;;;4.60;3.83;;;;;;;20.11;66.88;94628.88;6302646;22;20619;-77
2022/08/02 05:45:58;;;;;;;5.35;3.88;;;;;;;20.20;65.56;94631.69;6301979;22;20164;-77
2022/08/02 05:48:25;;;;;;;8.50;4.00;;;;;;;20.25;64.89;94639.59;6301973;22;20195;-76
2022/08/02 05:51:00;;;;;;;5.68;3.35;;;;;;;20.22;65.58;94619.00;6301649;22;20172;-75
2022/08/02 05:53:36;;;;;;;4.35;3.60;;;;;;;20.37;64.92;94634.72;6301173;22;20187;-76
2022/08/02 05:56:12;;;;;;;5.88;3.10;;;;;;;20.50;64.01;94638.56;6302122;22;20152;-76
2022/08/02 05:58:49;;;;;;;4.50;3.10;;;;;;;20.52;63.31;94629.28;6300495;22;20824;-76
2022/08/02 06:01:22;;;;;;;6.93;3.58;;;;;;;20.50;63.84;94635.91;6300914;22;20184;-74
2022/08/02 06:03:52;;;;;;;5.20;3.40;;;;;;;20.53;63.77;94638.78;6301908;22;20223;-76
2022/08/02 06:06:23;;;;;;;4.82;3.30;;;;;;;20.59;64.25;94647.44;6300285;22;20658;-75
2022/08/02 06:08:58;;;;;;;4.20;3.15;;;;;;;20.77;64.62;94646.72;6300926;22;20236;-76
2022/08/02 06:11:35;;;;;;;4.43;3.28;;;;;;;20.80;64.21;94636.38;6300946;22;20156;-77
2022/08/02 06:14:04;;;;;;;6.25;3.10;;;;;;;20.98;63.02;94647.28;6301859;22;20215;-77
2022/08/02 06:16:31;;;;;;;3.55;2.95;;;;;;;20.96;62.52;94644.91;6302513;22;20635;-87
2022/08/02 06:18:59;;;;;;;3.78;3.10;;;;;;;21.05;62.38;94653.00;6304808;22;20169;-77
2022/08/02 06:21:26;;;;;;;3.40;3.00;;;;;;;21.08;62.34;94650.63;6300595;22;20175;-78
2022/08/02 06:23:53;;;;;;;6.22;2.83;;;;;;;21.20;61.79;94651.00;6302633;22;20172;-78
2022/08/02 06:26:22;;;;;;;4.97;2.88;;;;;;;21.32;61.14;94659.31;6301232;22;20172;-78
2022/08/02 06:28:52;;;;;;;5.75;3.28;;;;;;;21.49;61.73;94654.31;6301145;22;20168;-75
2022/08/02 06:31:19;;;;;;;8.82;3.05;;;;;;;21.66;60.91;94660.97;6302047;22;20221;-83
2022/08/02 06:33:47;;;;;;;9.85;3.10;;;;;;;21.73;60.93;94656.09;6299739;22;20661;-78
2022/08/02 06:36:19;;;;;;;3.03;2.70;;;;;;;21.81;58.71;94676.63;6300154;22;20243;-79
2022/08/02 06:38:55;;;;;;;4.13;2.55;;;;;;;21.70;58.31;94675.19;6299944;22;20218;-80
2022/08/02 06:41:24;;;;;;;4.85;2.47;;;;;;;21.62;59.40;94676.59;6300394;22;20193;-79
2022/08/02 06:43:55;;;;;;;4.07;2.70;;;;;;;21.80;58.89;94673.19;6300965;22;20175;-76
2022/08/02 06:46:22;;;;;;;3.38;2.70;;;;;;;21.77;57.87;94670.31;6299291;22;20156;-76
2022/08/02 06:48:49;;;;;;;3.65;2.63;;;;;;;21.77;58.64;94672.97;6300850;22;20501;-83
2022/08/02 06:51:16;;;;;;;8.57;2.83;;;;;;;21.84;58.17;94665.47;6299874;22;20160;-76
2022/08/02 06:53:43;;;;;;;2.90;2.60;;;;;;;21.98;58.11;94672.41;6300481;22;20168;-76
2022/08/02 06:56:10;;;;;;;6.78;2.78;;;;;;;22.01;57.92;94677.13;6300160;22;20199;-77
2022/08/02 06:58:37;;;;;;;11.52;3.30;;;;;;;22.10;58.02;94677.28;6300282;22;20179;-76
2022/08/02 07:01:06;;;;;;;5.60;2.78;;;;;;;22.16;57.48;94668.19;6302456;22;20165;-75
2022/08/02 07:03:33;;;;;;;5.13;3.08;;;;;;;22.43;57.81;94665.59;6303520;22;20250;-77
2022/08/02 07:06:00;;;;;;;4.78;3.05;;;;;;;22.62;57.59;94670.84;6304706;22;20153;-77
2022/08/02 07:08:31;;;;;;;3.60;2.80;;;;;;;22.75;56.89;94670.06;6304348;22;20413;-78
2022/08/02 07:10:59;;;;;;;6.97;3.33;;;;;;;22.59;56.67;94666.91;6303902;22;20244;-84
2022/08/02 07:13:26;;;;;;;6.25;3.00;;;;;;;22.46;58.33;94666.84;6305056;22;20164;-75
2022/08/02 07:15:53;;;;;;;4.65;2.60;;;;;;;22.41;57.87;94670.41;6303865;22;20191;-76
2022/08/02 07:18:22;;;;;;;6.45;2.97;;;;;;;22.45;58.20;94668.72;6303113;22;20179;-82
2022/08/02 07:20:49;;;;;;;7.07;2.90;;;;;;;22.41;58.34;94657.16;6303387;22;20169;-78
2022/08/02 07:23:17;;;;;;;12.65;2.70;;;;;;;22.44;57.79;94666.38;6304199;22;20176;-78
2022/08/02 07:25:45;;;;;;;7.07;2.90;;;;;;;22.41;57.94;94659.78;6303280;22;20200;-77
2022/08/02 07:28:14;;;;;;;6.25;2.80;;;;;;;22.47;58.06;94658.63;6304348;22;20168;-79
2022/08/02 07:30:42;;;;;;;4.95;3.20;;;;;;;22.45;58.03;94660.00;6304219;22;20199;-78
2022/08/02 07:33:09;;;;;;;4.07;2.70;;;;;;;22.47;57.59;94656.00;6303777;22;20175;-78
2022/08/02 07:35:37;;;;;;;8.45;2.90;;;;;;;22.49;57.81;94661.78;6302834;22;20582;-78
2022/08/02 07:38:04;;;;;;;7.10;2.80;;;;;;;22.63;58.25;94653.84;6303415;22;20709;-78
2022/08/02 07:40:31;;;;;;;7.07;2.70;;;;;;;22.88;58.13;94663.22;6304518;22;20171;-78
2022/08/02 07:42:59;;;;;;;4.85;2.65;;;;;;;22.91;56.41;94652.81;6304465;22;20496;-78
2022/08/02 07:45:27;;;;;;;4.75;2.72;;;;;;;22.91;56.71;94655.47;6304508;22;20169;-78
2022/08/02 07:47:55;;;;;;;5.30;3.03;;;;;;;22.89;57.24;94654.97;6303931;22;20195;-77
2022/08/02 07:50:22;;;;;;;4.30;2.67;;;;;;;23.00;57.96;94653.69;6304511;22;20631;-78
2022/08/02 07:52:51;;;;;;;6.57;3.00;;;;;;;23.05;56.96;94650.16;6304360;22;20714;-78
2022/08/02 07:55:18;;;;;;;5.40;2.22;;;;;;;23.09;55.91;94646.63;6303806;22;20195;-77
2022/08/02 07:57:45;;;;;;;3.95;2.58;;;;;;;23.16;56.40;94651.53;6304364;22;20164;-77
2022/08/02 08:00:14;;;;;;;3.08;2.20;;;;;;;23.14;55.51;94651.81;6304567;22;20164;-77
2022/08/02 08:02:41;;;;;;;3.95;2.60;;;;;;;23.22;55.71;94665.47;6305213;22;20160;-77
2022/08/02 08:05:09;;;;;;;2.65;2.40;;;;;;;23.27;55.80;94652.09;6306245;22;20164;-77
2022/08/02 08:07:36;;;;;;;4.20;2.90;;;;;;;23.39;55.73;94649.75;6306257;22;20168;-78
2022/08/02 08:10:06;;;;;;;5.13;3.88;;;;;;;23.39;54.84;94655.06;6306301;22;20537;-76
2022/08/02 08:12:33;;;;;;;4.35;2.90;;;;;;;23.35;55.35;94654.84;6306280;22;20579;-77
2022/08/02 08:15:00;;;;;;;6.30;2.70;;;;;;;23.40;55.33;94657.44;6305580;22;20195;-79
2022/08/02 08:17:27;;;;;;;2.60;2.00;;;;;;;23.48;55.08;94655.94;6306390;22;20168;-76
2022/08/02 08:19:54;;;;;;;6.60;2.20;;;;;;;23.55;54.12;94664.28;6306094;22;20175;-78
2022/08/02 08:22:21;;;;;;;3.45;2.25;;;;;;;23.54;53.92;94652.09;6305408;22;20243;-77
2022/08/02 08:24:48;;;;;;;3.03;2.20;;;;;;;23.55;54.09;94658.97;6306425;22;20555;-77
2022/08/02 08:27:16;;;;;;;2.63;2.22;;;;;;;23.63;54.82;94652.94;6305771;22;20226;-77
2022/08/02 08:29:43;;;;;;;2.20;2.00;;;;;;;23.75;54.73;94650.56;6305868;22;20251;-77
2022/08/02 08:32:10;;;;;;;2.35;2.13;;;;;;;23.93;54.59;94646.94;6305971;22;20172;-77
2022/08/02 08:34:37;;;;;;;3.33;2.13;;;;;;;24.02;53.74;94645.13;6305492;22;20337;-77
2022/08/02 08:37:04;;;;;;;4.55;2.47;;;;;;;24.13;54.42;94651.00;6306122;22;20164;-79
2022/08/02 08:39:31;;;;;;;5.05;2.13;;;;;;;24.30;53.72;94645.81;6306138;22;20241;-78
2022/08/02 08:41:57;;;;;;;3.95;2.30;;;;;;;24.41;53.43;94646.34;6304688;22;20517;-79
2022/08/02 08:44:27;;;;;;;3.92;2.08;;;;;;;24.44;53.42;94648.41;6306552;22;20168;-79
2022/08/02 08:46:56;;;;;;;4.25;1.92;;;;;;;24.57;52.39;94650.19;6304627;22;20604;-78
2022/08/02 08:49:27;;;;;;;2.22;2.03;;;;;;;24.62;51.83;94647.38;6306723;22;20176;-78
2022/08/02 08:51:56;;;;;;;4.43;2.05;;;;;;;24.63;51.98;94646.31;6306791;22;20168;-76
2022/08/02 08:54:24;;;;;;;2.17;1.67;;;;;;;24.65;51.68;94647.56;6305207;22;20168;-77
2022/08/02 08:56:54;;;;;;;2.75;1.77;;;;;;;24.89;51.50;94647.22;6305034;22;20175;-76
2022/08/02 08:59:21;;;;;;;3.60;1.98;;;;;;;24.98;51.56;94645.38;6306163;22;20227;-76
2022/08/02 09:01:50;;;;;;;2.35;2.15;;;;;;;25.17;52.41;94642.47;6306248;22;20164;-77
2022/08/02 09:04:17;;;;;;;4.80;2.10;;;;;;;25.30;51.19;94641.56;6304878;22;20491;-76
2022/08/02 09:06:44;;;;;;;2.13;1.90;;;;;;;25.37;50.78;94648.00;6306077;22;20164;-78
2022/08/02 09:09:11;;;;;;;4.35;2.33;;;;;;;25.45;50.98;94638.47;6306024;22;20199;-76
2022/08/02 09:11:37;;;;;;;3.45;1.90;;;;;;;25.56;49.98;94649.63;6305845;22;20172;-76
2022/08/02 09:14:05;;;;;;;3.25;2.05;;;;;;;25.61;49.29;94649.47;6306278;22;20164;-76
2022/08/02 09:16:34;;;;;;;2.22;1.88;;;;;;;25.65;49.04;94647.75;6305004;22;20509;-78
2022/08/02 09:19:17;;;;;;;2.42;1.80;;;;;;;25.67;48.79;94642.88;6306343;22;20164;-77
2022/08/02 09:21:44;;;;;;;2.33;1.77;;;;;;;25.77;49.70;94643.34;6304727;22;20160;-77
2022/08/02 09:24:19;;;;;;;2.38;1.90;;;;;;;25.89;48.53;94645.41;6306440;22;20168;-77
2022/08/02 09:26:47;;;;;;;2.58;1.90;;;;;;;25.95;48.97;94647.59;6305545;22;20160;-77
2022/08/02 09:29:14;;;;;;;3.20;1.90;;;;;;;26.03;48.77;94645.25;6306534;22;20168;-77
2022/08/02 09:31:42;;;;;;;1.98;1.77;;;;;;;26.11;48.24;94639.91;6305798;22;20196;-77
2022/08/02 09:34:10;;;;;;;2.60;1.75;;;;;;;26.11;47.42;94639.91;6305763;22;20168;-77
2022/08/02 09:36:40;;;;;;;2.13;1.75;;;;;;;26.12;48.51;94641.47;6305907;22;20249;-81
2022/08/02 09:39:09;;;;;;;3.65;2.00;;;;;;;26.20;49.11;94630.06;6305881;22;20169;-78
2022/08/02 09:41:44;;;;;;;2.42;2.00;;;;;;;26.05;47.36;94633.19;6306232;22;20172;-78
2022/08/02 09:44:12;;;;;;;2.17;1.98;;;;;;;25.94;48.40;94630.03;6305758;22;20151;-78
2022/08/02 09:46:41;;;;;;;2.08;1.70;;;;;;;26.08;48.37;94634.44;6304948;22;20175;-77
2022/08/02 09:49:11;;;;;;;3.05;1.70;;;;;;;26.17;48.57;94622.69;6305863;22;20176;-76
2022/08/02 09:51:40;;;;;;;5.13;1.65;;;;;;;26.22;47.37;94622.53;6306029;22;20170;-77
2022/08/02 09:54:08;;;;;;;2.30;1.85;;;;;;;26.47;48.50;94626.22;6306057;22;20160;-78
2022/08/02 09:56:44;;;;;;;2.85;1.50;;;;;;;26.61;46.74;94623.38;6305949;22;20549;-79
2022/08/02 09:59:12;;;;;;;1.85;1.75;;;;;;;26.81;45.89;94626.13;6305446;22;20207;-78
2022/08/02 10:01:39;;;;;;;1.63;1.52;;;;;;;26.86;45.99;94614.50;6305313;22;20546;-77
2022/08/02 10:04:10;;;;;;;2.10;1.63;;;;;;;26.94;44.95;94622.47;6305502;22;20164;-79
2022/08/02 10:06:39;;;;;;;1.42;1.30;;;;;;;27.08;45.21;94624.13;6306147;22;20221;-77
2022/08/02 10:09:07;;;;;;;1.95;1.60;;;;;;;27.15;45.09;94622.53;6305681;22;20242;-78
2022/08/02 10:11:34;;;;;;;2.15;1.70;;;;;;;27.38;45.90;94625.69;6305834;22;20165;-77
2022/08/02 10:14:03;;;;;;;2.55;1.70;;;;;;;27.66;44.76;94628.66;6306450;22;20187;-79
2022/08/02 10:16:33;;;;;;;2.40;1.58;;;;;;;27.90;43.90;94624.25;6305364;22;20199;-80
2022/08/02 10:19:03;;;;;;;1.50;1.40;;;;;;;28.00;44.43;94631.84;6308956;22;20241;-83
2022/08/02 10:21:32;;;;;;;2.22;1.40;;;;;;;27.97;44.88;94621.81;6308665;22;20164;-83
2022/08/02 10:24:08;;;;;;;3.22;1.60;;;;;;;28.14;44.34;94624.34;6307596;22;20175;-80
2022/08/02 10:26:38;;;;;;;2.25;1.70;;;;;;;28.32;43.75;94621.50;6305645;22;20171;-79
2022/08/02 10:29:05;;;;;;;2.30;1.58;;;;;;;28.48;43.25;94615.22;6306081;22;20230;-79
2022/08/02 10:31:38;;;;;;;1.80;1.70;;;;;;;28.68;44.01;94608.25;6305135;22;20611;-79
2022/08/02 10:34:10;;;;;;;1.77;1.67;;;;;;;28.91;42.19;94606.72;6305310;22;20168;-79
2022/08/02 10:36:39;;;;;;;2.00;1.80;;;;;;;29.06;42.77;94605.28;6304933;22;20176;-78
2022/08/02 10:39:07;;;;;;;2.08;1.52;;;;;;;29.33;41.69;94609.16;6306166;22;20171;-79
2022/08/02 10:41:42;;;;;;;1.70;1.60;;;;;;;29.43;41.66;94612.19;6305734;22;20171;-80
2022/08/02 10:44:08;;;;;;;4.70;1.67;;;;;;;29.64;41.66;94612.78;6305550;22;20171;-79
2022/08/02 10:46:36;;;;;;;5.47;1.70;;;;;;;29.81;41.21;94617.16;6304603;22;20179;-78
2022/08/02 10:49:10;;;;;;;5.60;1.75;;;;;;;30.07;41.29;94616.72;6305857;22;20171;-80
2022/08/02 10:52:05;;;;;;;5.38;1.85;;;;;;;29.99;40.29;94615.75;6305488;22;20157;-77
2022/08/02 10:54:38;;;;;;;1.98;1.60;;;;;;;30.06;40.22;94609.78;6304367;22;20160;-78
2022/08/02 10:57:16;;;;;;;2.80;1.50;;;;;;;30.32;40.08;94616.28;6305440;22;20176;-78
2022/08/02 10:59:43;;;;;;;1.40;1.30;;;;;;;30.41;38.60;94605.41;6305072;22;20179;-77
2022/08/02 11:02:11;;;;;;;2.28;1.50;;;;;;;30.69;39.67;94611.50;6304725;22;20172;-78
2022/08/02 11:05:05;;;;;;;1.95;1.48;;;;;;;30.62;38.27;94613.25;6305612;22;20172;-79
2022/08/02 11:07:35;;;;;;;1.73;1.42;;;;;;;30.30;38.63;94604.34;6305458;22;20191;-77
2022/08/02 11:10:43;;;;;;;1.70;1.60;;;;;;;30.27;40.08;94610.38;6304976;22;20168;-77
2022/08/02 11:13:14;;;;;;;1.30;1.20;;;;;;;29.80;39.04;94605.66;6305167;22;20156;-78
2022/08/02 11:15:57;;;;;;;1.85;1.35;;;;;;;29.98;39.17;94608.03;6304178;22;20581;-77
2022/08/02 11:19:04;;;;;;;2.10;1.40;;;;;;;30.34;39.71;94607.88;6305149;22;20157;-77
2022/08/02 11:21:32;;;;;;;3.10;1.58;;;;;;;30.52;38.90;94605.69;6304554;22;20168;-77
2022/08/02 11:24:31;;;;;;;10.52;1.83;;;;;;;30.40;39.59;94616.47;6304801;22;20170;-77
2022/08/02 11:27:00;;;;;;;5.25;1.67;;;;;;;30.07;39.72;94609.44;6304873;22;20176;-77
2022/08/02 11:29:37;;;;;;;3.00;1.70;;;;;;;29.79;40.80;94606.72;6305082;22;20168;-77
2022/08/02 11:32:05;;;;;;;2.90;1.70;;;;;;;29.69;40.74;94614.47;6304953;22;20155;-77
2022/08/02 11:34:33;;;;;;;3.13;1.50;;;;;;;29.53;40.88;94609.03;6305107;22;20192;-76
2022/08/02 11:37:00;;;;;;;4.63;1.70;;;;;;;29.36;41.27;94611.19;6303519;22;20199;-78
2022/08/02 11:39:27;;;;;;;2.30;1.60;;;;;;;29.06;41.74;94600.69;6304801;22;20226;-77
2022/08/02 11:41:57;;;;;;;2.72;1.70;;;;;;;28.95;42.37;94610.28;6304980;22;20194;-78
2022/08/02 11:44:24;;;;;;;2.00;1.77;;;;;;;28.86;42.33;94598.91;6304328;22;20225;-77